DAVRO EKCH-EDDH
Flight info
| Callsign | DAVRO |
|---|---|
| Flight time | N/A |
| Altitude | 27000 |
| Route | NEXEN T503 MICOS N850 BOGMU |
| Aircraft | RJ85/M-VR/N |
Departure
| Time | N/A |
|---|---|
| Airport | Copenhagen Kastrup Airport (EKCH) |
Arrival
| Time | 2026-05-06 14:54 |
|---|---|
| Airport | Hamburg Helmut Schmidt Airport (EDDH) |
| Time | Latitude | Longitude | Altitude | Speed | Heading |
|---|---|---|---|---|---|
| 2026-05-06 14:26 | 54.79943 | 11.64383 | 26927 ft | 397 kts | 218° |
| 2026-05-06 14:26 | 54.77795 | 11.61374 | 26927 ft | 396 kts | 218° |
| 2026-05-06 14:26 | 54.75642 | 11.58397 | 26926 ft | 395 kts | 218° |
| 2026-05-06 14:26 | 54.73491 | 11.55440 | 26926 ft | 394 kts | 218° |
| 2026-05-06 14:27 | 54.71352 | 11.52470 | 26926 ft | 394 kts | 218° |
| 2026-05-06 14:27 | 54.69213 | 11.49526 | 26926 ft | 393 kts | 218° |
| 2026-05-06 14:27 | 54.67078 | 11.46582 | 26926 ft | 393 kts | 218° |
| 2026-05-06 14:27 | 54.64938 | 11.43634 | 26926 ft | 392 kts | 218° |
| 2026-05-06 14:28 | 54.62799 | 11.40705 | 26926 ft | 392 kts | 218° |
| 2026-05-06 14:28 | 54.60669 | 11.37765 | 26924 ft | 392 kts | 218° |
| 2026-05-06 14:28 | 54.58523 | 11.34826 | 26908 ft | 393 kts | 218° |
| 2026-05-06 14:28 | 54.56355 | 11.31940 | 26900 ft | 394 kts | 217° |
| 2026-05-06 14:29 | 54.54187 | 11.29149 | 26898 ft | 394 kts | 216° |
| 2026-05-06 14:29 | 54.51959 | 11.26373 | 26897 ft | 395 kts | 215° |
| 2026-05-06 14:29 | 54.49716 | 11.23633 | 26897 ft | 395 kts | 215° |
| 2026-05-06 14:29 | 54.47468 | 11.20914 | 26897 ft | 395 kts | 214° |
| 2026-05-06 14:30 | 54.45217 | 11.18207 | 26897 ft | 395 kts | 214° |
| 2026-05-06 14:30 | 54.42963 | 11.15504 | 26897 ft | 395 kts | 214° |
| 2026-05-06 14:30 | 54.40701 | 11.12799 | 26897 ft | 395 kts | 214° |
| 2026-05-06 14:30 | 54.38443 | 11.10102 | 26897 ft | 396 kts | 214° |
| 2026-05-06 14:31 | 54.36186 | 11.07409 | 26897 ft | 395 kts | 214° |
| 2026-05-06 14:31 | 54.33948 | 11.04713 | 26863 ft | 390 kts | 215° |
| 2026-05-06 14:31 | 54.31821 | 11.01864 | 26699 ft | 384 kts | 220° |
| 2026-05-06 14:31 | 54.29905 | 10.98733 | 26281 ft | 379 kts | 225° |
| 2026-05-06 14:32 | 54.28146 | 10.95380 | 25575 ft | 378 kts | 228° |
| 2026-05-06 14:32 | 54.26527 | 10.91924 | 24858 ft | 373 kts | 230° |
| 2026-05-06 14:32 | 54.24979 | 10.88386 | 23987 ft | 370 kts | 231° |
| 2026-05-06 14:32 | 54.23483 | 10.84828 | 23070 ft | 367 kts | 232° |
| 2026-05-06 14:33 | 54.22012 | 10.81301 | 22180 ft | 362 kts | 232° |
| 2026-05-06 14:33 | 54.20543 | 10.77839 | 21341 ft | 356 kts | 231° |
| 2026-05-06 14:33 | 54.19063 | 10.74469 | 20487 ft | 350 kts | 231° |
| 2026-05-06 14:33 | 54.17586 | 10.71199 | 19622 ft | 345 kts | 231° |
| 2026-05-06 14:34 | 54.16105 | 10.67994 | 18720 ft | 342 kts | 231° |
| 2026-05-06 14:34 | 54.14622 | 10.64854 | 17820 ft | 338 kts | 231° |
| 2026-05-06 14:34 | 54.13141 | 10.61763 | 16921 ft | 335 kts | 231° |
| 2026-05-06 14:34 | 54.11667 | 10.58663 | 16019 ft | 333 kts | 231° |
| 2026-05-06 14:35 | 54.10225 | 10.55610 | 15165 ft | 329 kts | 231° |
| 2026-05-06 14:35 | 54.08798 | 10.52581 | 14313 ft | 326 kts | 231° |
| 2026-05-06 14:35 | 54.07390 | 10.49585 | 13468 ft | 323 kts | 231° |
| 2026-05-06 14:35 | 54.06030 | 10.46645 | 12776 ft | 316 kts | 232° |
| 2026-05-06 14:36 | 54.04686 | 10.43719 | 12098 ft | 310 kts | 232° |
| 2026-05-06 14:36 | 54.03372 | 10.40855 | 11422 ft | 305 kts | 232° |
| 2026-05-06 14:36 | 54.02082 | 10.38044 | 10929 ft | 295 kts | 231° |
| 2026-05-06 14:36 | 54.00878 | 10.35371 | 10874 ft | 275 kts | 231° |
| 2026-05-06 14:37 | 53.99730 | 10.32834 | 10866 ft | 268 kts | 231° |
| 2026-05-06 14:37 | 53.98669 | 10.30222 | 10868 ft | 271 kts | 237° |
| 2026-05-06 14:37 | 53.97727 | 10.27424 | 10869 ft | 275 kts | 240° |
| 2026-05-06 14:37 | 53.96837 | 10.24512 | 10869 ft | 279 kts | 242° |
| 2026-05-06 14:38 | 53.95970 | 10.21518 | 10870 ft | 286 kts | 243° |
| 2026-05-06 14:38 | 53.95108 | 10.18482 | 10870 ft | 293 kts | 243° |
| 2026-05-06 14:38 | 53.94380 | 10.15905 | 10869 ft | 296 kts | 243° |
| 2026-05-06 14:38 | 53.93484 | 10.12727 | 10869 ft | 300 kts | 243° |
| 2026-05-06 14:39 | 53.92579 | 10.09514 | 10868 ft | 302 kts | 243° |
| 2026-05-06 14:39 | 53.91669 | 10.06285 | 10868 ft | 303 kts | 243° |
| 2026-05-06 14:39 | 53.90702 | 10.03107 | 10820 ft | 304 kts | 235° |
| 2026-05-06 14:39 | 53.89313 | 10.00462 | 10682 ft | 297 kts | 222° |
| 2026-05-06 14:40 | 53.87745 | 9.98249 | 10505 ft | 289 kts | 217° |
| 2026-05-06 14:40 | 53.86146 | 9.96247 | 10300 ft | 284 kts | 215° |
| 2026-05-06 14:40 | 53.84530 | 9.94317 | 9985 ft | 283 kts | 214° |
| 2026-05-06 14:40 | 53.82923 | 9.92431 | 9684 ft | 280 kts | 214° |
| 2026-05-06 14:41 | 53.81320 | 9.90563 | 9382 ft | 278 kts | 214° |
| 2026-05-06 14:41 | 53.79749 | 9.88746 | 9095 ft | 277 kts | 214° |
| 2026-05-06 14:41 | 53.78147 | 9.86906 | 8954 ft | 272 kts | 214° |
| 2026-05-06 14:41 | 53.76603 | 9.85144 | 8888 ft | 271 kts | 214° |
| 2026-05-06 14:42 | 53.75040 | 9.83350 | 8868 ft | 272 kts | 213° |
| 2026-05-06 14:42 | 53.73469 | 9.81514 | 8869 ft | 276 kts | 214° |
| 2026-05-06 14:42 | 53.71884 | 9.79645 | 8872 ft | 280 kts | 214° |
| 2026-05-06 14:42 | 53.70278 | 9.77753 | 8869 ft | 282 kts | 214° |
| 2026-05-06 14:43 | 53.68665 | 9.75851 | 8868 ft | 284 kts | 214° |
| 2026-05-06 14:43 | 53.67045 | 9.73942 | 8867 ft | 285 kts | 214° |
| 2026-05-06 14:43 | 53.65421 | 9.72028 | 8870 ft | 285 kts | 214° |
| 2026-05-06 14:43 | 53.63789 | 9.70103 | 8863 ft | 286 kts | 214° |
| 2026-05-06 14:44 | 53.62140 | 9.68162 | 8610 ft | 289 kts | 214° |
| 2026-05-06 14:44 | 53.60515 | 9.66248 | 8410 ft | 283 kts | 214° |
| 2026-05-06 14:44 | 53.58918 | 9.64369 | 8105 ft | 276 kts | 214° |
| 2026-05-06 14:45 | 53.55924 | 9.60843 | 6970 ft | 260 kts | 214° |
| 2026-05-06 14:45 | 53.54515 | 9.59187 | 6460 ft | 247 kts | 214° |
| 2026-05-06 14:45 | 53.53063 | 9.57487 | 5723 ft | 261 kts | 214° |
| 2026-05-06 14:45 | 53.51504 | 9.56137 | 5565 ft | 246 kts | 194° |
| 2026-05-06 14:46 | 53.49837 | 9.56096 | 5233 ft | 238 kts | 165° |
| 2026-05-06 14:46 | 53.48391 | 9.57319 | 4968 ft | 230 kts | 143° |
| 2026-05-06 14:46 | 53.47395 | 9.59334 | 4693 ft | 223 kts | 112° |
| 2026-05-06 14:46 | 53.47132 | 9.61799 | 4622 ft | 208 kts | 89° |
| 2026-05-06 14:47 | 53.47245 | 9.64125 | 4610 ft | 193 kts | 81° |
| 2026-05-06 14:47 | 53.47571 | 9.66255 | 4435 ft | 185 kts | 70° |
| 2026-05-06 14:47 | 53.48109 | 9.68172 | 4265 ft | 179 kts | 60° |
| 2026-05-06 14:47 | 53.48776 | 9.69889 | 4133 ft | 173 kts | 55° |
| 2026-05-06 14:48 | 53.49508 | 9.71509 | 3892 ft | 175 kts | 52° |
| 2026-05-06 14:48 | 53.50278 | 9.73101 | 3640 ft | 176 kts | 51° |
| 2026-05-06 14:48 | 53.51058 | 9.74666 | 3391 ft | 176 kts | 51° |
| 2026-05-06 14:48 | 53.51844 | 9.76226 | 3148 ft | 174 kts | 51° |
| 2026-05-06 14:49 | 53.52621 | 9.77768 | 2912 ft | 171 kts | 51° |
| 2026-05-06 14:49 | 53.53383 | 9.79284 | 2683 ft | 168 kts | 51° |
| 2026-05-06 14:49 | 53.54125 | 9.80769 | 2461 ft | 164 kts | 52° |
| 2026-05-06 14:49 | 53.54851 | 9.82231 | 2240 ft | 161 kts | 52° |
| 2026-05-06 14:50 | 53.55541 | 9.83632 | 2073 ft | 147 kts | 52° |
| 2026-05-06 14:50 | 53.56169 | 9.84921 | 1891 ft | 138 kts | 52° |
| 2026-05-06 14:50 | 53.56767 | 9.86149 | 1695 ft | 134 kts | 52° |
| 2026-05-06 14:50 | 53.57314 | 9.87281 | 1546 ft | 119 kts | 51° |
| 2026-05-06 14:51 | 53.57821 | 9.88355 | 1331 ft | 115 kts | 52° |
| 2026-05-06 14:51 | 53.58285 | 9.89348 | 1113 ft | 102 kts | 51° |
| 2026-05-06 14:51 | 53.58743 | 9.90236 | 947 ft | 100 kts | 49° |
| 2026-05-06 14:51 | 53.59198 | 9.91120 | 823 ft | 101 kts | 50° |
| 2026-05-06 14:52 | 53.59664 | 9.92049 | 708 ft | 106 kts | 51° |
| 2026-05-06 14:52 | 53.60146 | 9.93006 | 573 ft | 108 kts | 51° |
| 2026-05-06 14:52 | 53.60625 | 9.93986 | 451 ft | 108 kts | 52° |
| 2026-05-06 14:52 | 53.61101 | 9.94938 | 312 ft | 106 kts | 49° |
| 2026-05-06 14:53 | 53.61587 | 9.95898 | 205 ft | 108 kts | 51° |
| 2026-05-06 14:53 | 53.62058 | 9.96853 | 95 ft | 104 kts | 50° |
| 2026-05-06 14:53 | 53.62485 | 9.97712 | 61 ft | 85 kts | 52° |
| 2026-05-06 14:53 | 53.62821 | 9.98391 | 61 ft | 67 kts | 51° |
| 2026-05-06 14:54 | 53.63041 | 9.98843 | 61 ft | 30 kts | 55° |
| 2026-05-06 14:54 | 53.63090 | 9.99113 | 61 ft | 17 kts | 93° |
| 2026-05-06 14:54 | 53.63083 | 9.99205 | 61 ft | 1 kts | 105° |
| 2026-05-06 14:54 | 53.63082 | 9.99208 | 61 ft | 2 kts | 105° |
| 2026-05-06 14:55 | 53.63072 | 9.99288 | 61 ft | 11 kts | 93° |
| 2026-05-06 14:55 | 53.63107 | 9.99440 | 61 ft | 21 kts | 54° |
| 2026-05-06 14:55 | 53.63203 | 9.99638 | 61 ft | 12 kts | 50° |
| 2026-05-06 14:55 | 53.63221 | 9.99672 | 61 ft | 1 kts | 50° |
| 2026-05-06 14:56 | 53.63221 | 9.99674 | 61 ft | 0 kts | 50° |
| 2026-05-06 14:56 | 53.63222 | 9.99675 | 61 ft | 1 kts | 51° |
| 2026-05-06 14:56 | 53.63182 | 9.99784 | 61 ft | 18 kts | 153° |
| 2026-05-06 14:56 | 53.63047 | 9.99900 | 61 ft | 19 kts | 151° |
| 2026-05-06 14:57 | 53.62982 | 9.99965 | 61 ft | 6 kts | 149° |
| 2026-05-06 14:57 | 53.62964 | 9.99982 | 61 ft | 0 kts | 151° |
| 2026-05-06 14:57 | 53.62964 | 9.99983 | 61 ft | 0 kts | 151° |